Time;durP1;ratioP1;P1;durP2;ratioP2;P2;SDS_P1;SDS_P2;PMS_P1;PMS_P2;Temp;Humidity;BMP_temperature;BMP_pressure;BME280_temperature;BME280_humidity;BME280_pressure;Samples;Min_cycle;Max_cycle;Signal;HPM_P1;HPM_P2
2021/12/30 00:01:24;;;;;;;0.10;0.10;;;;;;;;;;5039909;28;20040;-92
2021/12/30 00:03:51;;;;;;;0.10;0.10;;;;;;;;;;5039726;28;20087;-94
2021/12/30 00:06:18;;;;;;;0.10;0.10;;;;;;;;;;5056419;28;20048;-94
2021/12/30 00:08:44;;;;;;;0.10;0.10;;;;;;;;;;5039576;28;20047;-92
2021/12/30 00:11:10;;;;;;;0.10;0.10;;;;;;;;;;5039477;28;20032;-93
2021/12/30 00:13:36;;;;;;;0.10;0.10;;;;;;;;;;5039580;28;20088;-94
2021/12/30 00:16:02;;;;;;;0.10;0.10;;;;;;;;;;5039371;28;20058;-94
2021/12/30 00:18:28;;;;;;;0.10;0.10;;;;;;;;;;5039164;28;20079;-94
2021/12/30 00:20:56;;;;;;;0.10;0.10;;;;;;;;;;5039124;28;20494;-93
2021/12/30 00:23:22;;;;;;;0.10;0.10;;;;;;;;;;5039134;28;20041;-94
2021/12/30 00:25:48;;;;;;;0.10;0.10;;;;;;;;;;5039493;28;20044;-93
2021/12/30 00:28:21;;;;;;;0.10;0.10;;;;;;;;;;5055626;28;20135;-93
2021/12/30 00:30:48;;;;;;;0.10;0.10;;;;;;;;;;5039481;28;20048;-93
2021/12/30 00:33:14;;;;;;;0.10;0.10;;;;;;;;;;5039468;28;20041;-93
2021/12/30 00:35:40;;;;;;;0.22;0.22;;;;;;;;;;5039213;28;20265;-92
2021/12/30 00:38:06;;;;;;;0.10;0.10;;;;;;;;;;5039113;28;20041;-93
2021/12/30 00:40:32;;;;;;;0.10;0.10;;;;;;;;;;5039090;28;20101;-92
2021/12/30 00:42:59;;;;;;;0.10;0.10;;;;;;;;;;5038889;28;20132;-92
2021/12/30 00:45:26;;;;;;;0.10;0.10;;;;;;;;;;5039126;28;20090;-92
2021/12/30 00:47:52;;;;;;;0.10;0.10;;;;;;;;;;5038928;28;20050;-92
2021/12/30 00:50:19;;;;;;;0.10;0.10;;;;;;;;;;5039524;28;20123;-93
2021/12/30 00:52:45;;;;;;;0.10;0.10;;;;;;;;;;5039164;28;20893;-92
2021/12/30 00:55:11;;;;;;;0.10;0.10;;;;;;;;;;5038959;28;20515;-93
2021/12/30 00:57:37;;;;;;;0.10;0.10;;;;;;;;;;5038698;28;20047;-93
2021/12/30 01:00:06;;;;;;;0.10;0.10;;;;;;;;;;5055310;28;20036;-91
2021/12/30 01:02:32;;;;;;;0.10;0.10;;;;;;;;;;5038596;28;20522;-92
2021/12/30 01:04:58;;;;;;;0.10;0.10;;;;;;;;;;5038892;28;20045;-93
2021/12/30 01:07:24;;;;;;;0.10;0.10;;;;;;;;;;5038410;28;20456;-91
2021/12/30 01:09:50;;;;;;;0.10;0.10;;;;;;;;;;5039006;28;20044;-92
2021/12/30 01:12:18;;;;;;;0.10;0.10;;;;;;;;;;5054633;28;20036;-91
2021/12/30 01:14:46;;;;;;;0.10;0.10;;;;;;;;;;5038413;28;20051;-91
2021/12/30 01:17:19;;;;;;;0.10;0.10;;;;;;;;;;5038222;28;20043;-91
2021/12/30 01:19:45;;;;;;;0.10;0.10;;;;;;;;;;5038990;28;20044;-92
2021/12/30 01:22:19;;;;;;;0.10;0.10;;;;;;;;;;5038351;28;20093;-91
2021/12/30 01:24:45;;;;;;;0.10;0.10;;;;;;;;;;5038054;28;20131;-92
2021/12/30 01:27:11;;;;;;;0.10;0.10;;;;;;;;;;5037900;28;20039;-91
2021/12/30 01:29:37;;;;;;;0.10;0.10;;;;;;;;;;5038075;28;20049;-92
2021/12/30 01:32:03;;;;;;;0.10;0.10;;;;;;;;;;5038208;28;20384;-92
2021/12/30 01:34:29;;;;;;;0.10;0.10;;;;;;;;;;5037990;28;20086;-91
2021/12/30 01:36:59;;;;;;;0.10;0.10;;;;;;;;;;5054818;28;20102;-90
2021/12/30 01:39:25;;;;;;;0.10;0.10;;;;;;;;;;5054721;28;20044;-91
2021/12/30 01:41:51;;;;;;;0.10;0.10;;;;;;;;;;5038766;28;20123;-93
2021/12/30 01:44:17;;;;;;;0.10;0.10;;;;;;;;;;5038600;28;20036;-91
2021/12/30 01:46:44;;;;;;;0.10;0.10;;;;;;;;;;5054442;28;20052;-92
2021/12/30 01:49:10;;;;;;;0.10;0.10;;;;;;;;;;5038284;28;20040;-92
2021/12/30 01:51:36;;;;;;;0.10;0.10;;;;;;;;;;5054852;28;20044;-92
2021/12/30 01:54:02;;;;;;;0.10;0.10;;;;;;;;;;5054400;28;20080;-91
2021/12/30 01:56:29;;;;;;;0.10;0.10;;;;;;;;;;5037979;28;20044;-91
2021/12/30 01:58:55;;;;;;;0.10;0.10;;;;;;;;;;5070923;28;20478;-91
2021/12/30 02:01:21;;;;;;;0.10;0.10;;;;;;;;;;5054637;28;20080;-92
2021/12/30 02:03:47;;;;;;;0.10;0.10;;;;;;;;;;5037750;28;20048;-92
2021/12/30 02:06:13;;;;;;;0.10;0.10;;;;;;;;;;5037750;28;20551;-91
2021/12/30 02:08:39;;;;;;;0.13;0.13;;;;;;;;;;5037713;28;20166;-93
2021/12/30 02:11:05;;;;;;;0.10;0.10;;;;;;;;;;5037712;28;20086;-92
2021/12/30 02:13:31;;;;;;;0.10;0.10;;;;;;;;;;5037583;28;20598;-92
2021/12/30 02:16:01;;;;;;;0.10;0.10;;;;;;;;;;5041068;28;20120;-91
2021/12/30 02:18:27;;;;;;;0.10;0.10;;;;;;;;;;5042151;28;20089;-92
2021/12/30 02:20:54;;;;;;;0.10;0.10;;;;;;;;;;5041618;28;20044;-91
2021/12/30 02:23:21;;;;;;;0.10;0.10;;;;;;;;;;5058413;28;20379;-92
2021/12/30 02:25:47;;;;;;;0.10;0.10;;;;;;;;;;5041325;28;20076;-91
2021/12/30 02:28:14;;;;;;;0.10;0.10;;;;;;;;;;5040992;28;20127;-91
2021/12/30 02:30:41;;;;;;;0.10;0.10;;;;;;;;;;5041071;28;20041;-91
2021/12/30 02:33:07;;;;;;;0.10;0.10;;;;;;;;;;5041046;28;20052;-93
2021/12/30 02:35:33;;;;;;;0.10;0.10;;;;;;;;;;5041387;28;20036;-92
2021/12/30 02:37:59;;;;;;;0.10;0.10;;;;;;;;;;5041446;28;20064;-93
2021/12/30 02:40:26;;;;;;;0.10;0.10;;;;;;;;;;5041141;28;20044;-92
2021/12/30 02:42:52;;;;;;;0.10;0.10;;;;;;;;;;5057541;28;20047;-92
2021/12/30 02:45:18;;;;;;;0.10;0.10;;;;;;;;;;5041243;28;20563;-92
2021/12/30 02:47:44;;;;;;;0.10;0.10;;;;;;;;;;5040938;28;20135;-95
2021/12/30 02:50:10;;;;;;;0.10;0.10;;;;;;;;;;5041709;28;20036;-93
2021/12/30 02:52:37;;;;;;;0.10;0.10;;;;;;;;;;5040964;28;20044;-94
2021/12/30 02:55:03;;;;;;;0.10;0.10;;;;;;;;;;5040865;28;20079;-92
2021/12/30 02:57:29;;;;;;;0.10;0.10;;;;;;;;;;5057439;28;20266;-92
2021/12/30 02:59:55;;;;;;;0.10;0.10;;;;;;;;;;5041029;28;20574;-92
2021/12/30 03:02:21;;;;;;;0.10;0.10;;;;;;;;;;5057244;28;20081;-92
2021/12/30 03:04:47;;;;;;;0.10;0.10;;;;;;;;;;5040497;28;20123;-92
2021/12/30 03:07:17;;;;;;;0.10;0.10;;;;;;;;;;5057374;28;20040;-91
2021/12/30 03:09:44;;;;;;;0.10;0.10;;;;;;;;;;5041255;28;20123;-92
2021/12/30 03:12:10;;;;;;;0.10;0.10;;;;;;;;;;5057187;28;20044;-93
2021/12/30 03:14:40;;;;;;;0.10;0.10;;;;;;;;;;5040843;28;20471;-92
2021/12/30 03:17:06;;;;;;;0.10;0.10;;;;;;;;;;5040355;28;20045;-91
2021/12/30 03:19:32;;;;;;;0.10;0.10;;;;;;;;;;5040650;28;20033;-92
2021/12/30 03:21:58;;;;;;;0.10;0.10;;;;;;;;;;5056958;28;20036;-93
2021/12/30 03:24:24;;;;;;;0.10;0.10;;;;;;;;;;5040791;28;20044;-92
2021/12/30 03:26:50;;;;;;;0.20;0.20;;;;;;;;;;5040276;28;20113;-93
2021/12/30 03:29:16;;;;;;;0.10;0.10;;;;;;;;;;5039920;28;20044;-92
2021/12/30 03:31:42;;;;;;;0.10;0.10;;;;;;;;;;5057078;28;20041;-93
2021/12/30 03:34:08;;;;;;;0.10;0.10;;;;;;;;;;5039929;28;20368;-92
2021/12/30 03:36:34;;;;;;;0.10;0.10;;;;;;;;;;5040090;28;20048;-93
2021/12/30 03:39:01;;;;;;;0.10;0.10;;;;;;;;;;5040449;28;20048;-93
2021/12/30 03:41:28;;;;;;;0.10;0.10;;;;;;;;;;5040248;28;20045;-93
2021/12/30 03:43:54;;;;;;;0.52;0.20;;;;;;;;;;5040355;28;20125;-92
2021/12/30 03:46:20;;;;;;;0.10;0.10;;;;;;;;;;5039862;28;20089;-92
2021/12/30 03:48:46;;;;;;;0.10;0.10;;;;;;;;;;5040041;28;20494;-93
2021/12/30 03:51:21;;;;;;;0.10;0.10;;;;;;;;;;5039734;28;20131;-92
2021/12/30 03:53:49;;;;;;;0.10;0.10;;;;;;;;;;5040196;28;20609;-93
2021/12/30 03:56:15;;;;;;;0.10;0.10;;;;;;;;;;5040781;28;20044;-93
2021/12/30 03:58:41;;;;;;;0.10;0.10;;;;;;;;;;5039924;28;20037;-93
2021/12/30 04:01:08;;;;;;;0.10;0.10;;;;;;;;;;5039459;28;20044;-93
2021/12/30 04:03:33;;;;;;;0.10;0.10;;;;;;;;;;5039843;28;20047;-92
2021/12/30 04:05:59;;;;;;;0.10;0.10;;;;;;;;;;5039364;28;20041;-92
2021/12/30 04:08:25;;;;;;;0.10;0.10;;;;;;;;;;5038992;28;20037;-92
2021/12/30 04:10:51;;;;;;;0.10;0.10;;;;;;;;;;5039400;28;20119;-92
2021/12/30 04:13:17;;;;;;;0.10;0.10;;;;;;;;;;5039225;28;20133;-92
2021/12/30 04:15:43;;;;;;;0.10;0.10;;;;;;;;;;5039488;28;20076;-92
2021/12/30 04:18:09;;;;;;;0.10;0.10;;;;;;;;;;5039416;28;20448;-92
2021/12/30 04:20:35;;;;;;;0.10;0.10;;;;;;;;;;5039203;28;20040;-93
2021/12/30 04:23:01;;;;;;;0.10;0.10;;;;;;;;;;5039468;28;20045;-92
2021/12/30 04:25:28;;;;;;;0.10;0.10;;;;;;;;;;5039161;28;20490;-92
2021/12/30 04:27:54;;;;;;;0.10;0.10;;;;;;;;;;5038811;28;20492;-91
2021/12/30 04:30:20;;;;;;;0.10;0.10;;;;;;;;;;5039242;28;20048;-92
2021/12/30 04:32:46;;;;;;;0.20;0.20;;;;;;;;;;5038831;28;20076;-92
2021/12/30 04:35:12;;;;;;;0.10;0.10;;;;;;;;;;5055560;28;20083;-92
2021/12/30 04:37:38;;;;;;;0.10;0.10;;;;;;;;;;5054771;28;20572;-92
2021/12/30 04:40:04;;;;;;;0.10;0.10;;;;;;;;;;5039050;28;20143;-92
2021/12/30 04:42:30;;;;;;;0.10;0.10;;;;;;;;;;5039446;28;20404;-92
2021/12/30 04:44:56;;;;;;;0.17;0.17;;;;;;;;;;5038734;28;20043;-93
2021/12/30 04:47:22;;;;;;;0.10;0.10;;;;;;;;;;5038474;28;20041;-92
2021/12/30 04:49:49;;;;;;;0.10;0.10;;;;;;;;;;5038613;28;20493;-92
2021/12/30 04:52:15;;;;;;;0.10;0.10;;;;;;;;;;5038479;28;20040;-92
2021/12/30 04:54:41;;;;;;;0.10;0.10;;;;;;;;;;5038743;28;20042;-93
2021/12/30 04:57:07;;;;;;;0.10;0.10;;;;;;;;;;5038753;28;20036;-92
2021/12/30 04:59:34;;;;;;;0.10;0.10;;;;;;;;;;5038917;28;20037;-91
2021/12/30 05:02:00;;;;;;;0.10;0.10;;;;;;;;;;5055023;28;20419;-92
2021/12/30 05:04:26;;;;;;;0.10;0.10;;;;;;;;;;5038574;28;20161;-92
2021/12/30 05:06:52;;;;;;;0.22;0.22;;;;;;;;;;5038494;28;20045;-92
2021/12/30 05:09:18;;;;;;;0.10;0.10;;;;;;;;;;5038424;28;20045;-93
2021/12/30 05:11:44;;;;;;;0.10;0.10;;;;;;;;;;5038720;28;20061;-92
2021/12/30 05:14:10;;;;;;;0.10;0.10;;;;;;;;;;5054879;28;20041;-92
2021/12/30 05:16:36;;;;;;;0.10;0.10;;;;;;;;;;5038468;28;20037;-93
2021/12/30 05:19:02;;;;;;;0.10;0.10;;;;;;;;;;5038805;28;20325;-91
2021/12/30 05:21:28;;;;;;;0.10;0.10;;;;;;;;;;5054700;28;20076;-94
2021/12/30 05:23:55;;;;;;;0.10;0.10;;;;;;;;;;5038230;28;20106;-93
2021/12/30 05:26:25;;;;;;;0.10;0.10;;;;;;;;;;5038190;28;20044;-94
2021/12/30 05:28:51;;;;;;;0.10;0.10;;;;;;;;;;5038625;28;20136;-93
2021/12/30 05:31:17;;;;;;;0.10;0.10;;;;;;;;;;5038439;28;20037;-94
2021/12/30 05:33:43;;;;;;;0.10;0.10;;;;;;;;;;5038205;28;20037;-95
2021/12/30 05:36:09;;;;;;;0.10;0.10;;;;;;;;;;5038202;28;20041;-94
2021/12/30 05:38:36;;;;;;;0.10;0.10;;;;;;;;;;5038344;28;20486;-95
2021/12/30 05:41:02;;;;;;;0.10;0.10;;;;;;;;;;5038191;28;20047;-91
2021/12/30 05:43:28;;;;;;;0.10;0.10;;;;;;;;;;5038075;28;20045;-93
2021/12/30 05:45:54;;;;;;;0.10;0.10;;;;;;;;;;5038438;28;20157;-95
2021/12/30 05:48:20;;;;;;;0.10;0.10;;;;;;;;;;5038142;28;20033;-95
2021/12/30 05:50:46;;;;;;;0.10;0.10;;;;;;;;;;5041729;28;20067;-94
2021/12/30 05:53:12;;;;;;;0.10;0.10;;;;;;;;;;5041848;28;20123;-93
2021/12/30 05:55:48;;;;;;;;;;;;;;;;;;;;;
2021/12/30 05:58:15;;;;;;;0.10;0.10;;;;;;;;;;5059825;28;20055;-94
2021/12/30 06:00:42;;;;;;;0.10;0.10;;;;;;;;;;5042148;28;20127;-93
2021/12/30 06:03:08;;;;;;;0.10;0.10;;;;;;;;;;5042652;28;20098;-93
2021/12/30 06:05:34;;;;;;;0.10;0.10;;;;;;;;;;5041960;28;20048;-94
2021/12/30 06:08:00;;;;;;;0.10;0.10;;;;;;;;;;5058442;28;20045;-93
2021/12/30 06:10:26;;;;;;;0.10;0.10;;;;;;;;;;5041648;28;20040;-88
2021/12/30 06:12:52;;;;;;;0.10;0.10;;;;;;;;;;5040838;28;20456;-93
2021/12/30 06:15:18;;;;;;;0.10;0.10;;;;;;;;;;5041661;28;20032;-94
2021/12/30 06:17:45;;;;;;;0.10;0.10;;;;;;;;;;5041677;28;20063;-92
2021/12/30 06:20:13;;;;;;;0.10;0.10;;;;;;;;;;5058509;28;20515;-93
2021/12/30 06:22:39;;;;;;;0.10;0.10;;;;;;;;;;5041584;28;20127;-93
2021/12/30 06:25:05;;;;;;;0.10;0.10;;;;;;;;;;5041765;28;20080;-93
2021/12/30 06:27:31;;;;;;;0.10;0.10;;;;;;;;;;5041186;28;20063;-92
2021/12/30 06:29:57;;;;;;;0.10;0.10;;;;;;;;;;5041412;28;20037;-94
2021/12/30 06:32:23;;;;;;;0.10;0.10;;;;;;;;;;5041622;28;20058;-95
2021/12/30 06:34:49;;;;;;;0.10;0.10;;;;;;;;;;5041391;28;20066;-95
2021/12/30 06:37:15;;;;;;;0.10;0.10;;;;;;;;;;5041793;28;20067;-95
2021/12/30 06:39:41;;;;;;;0.10;0.10;;;;;;;;;;5041141;28;20036;-95
2021/12/30 06:42:07;;;;;;;0.10;0.10;;;;;;;;;;5041710;28;20511;-92
2021/12/30 06:44:33;;;;;;;0.10;0.10;;;;;;;;;;5057447;28;20138;-93
2021/12/30 06:47:01;;;;;;;0.10;0.10;;;;;;;;;;5041626;28;20047;-92
2021/12/30 06:49:35;;;;;;;0.10;0.10;;;;;;;;;;5041112;28;20554;-92
2021/12/30 06:52:01;;;;;;;0.20;0.20;;;;;;;;;;5041153;28;20043;-91
2021/12/30 06:54:27;;;;;;;0.10;0.10;;;;;;;;;;5056668;28;20395;-87
2021/12/30 06:56:55;;;;;;;0.10;0.10;;;;;;;;;;5056812;28;20036;-90
2021/12/30 06:59:21;;;;;;;0.10;0.10;;;;;;;;;;5040835;28;20036;-88
2021/12/30 07:01:47;;;;;;;0.10;0.10;;;;;;;;;;5072600;28;20040;-88
2021/12/30 07:04:13;;;;;;;0.10;0.10;;;;;;;;;;5056569;28;20409;-87
2021/12/30 07:06:39;;;;;;;0.10;0.10;;;;;;;;;;5040340;28;20102;-91
2021/12/30 07:09:05;;;;;;;0.10;0.10;;;;;;;;;;5056597;28;20041;-91
2021/12/30 07:11:31;;;;;;;0.10;0.10;;;;;;;;;;5039970;28;20037;-91
2021/12/30 07:13:57;;;;;;;0.10;0.10;;;;;;;;;;5056312;28;20052;-88
2021/12/30 07:16:23;;;;;;;0.10;0.10;;;;;;;;;;5039767;28;20044;-90
2021/12/30 07:18:49;;;;;;;0.10;0.10;;;;;;;;;;5056137;28;20040;-87
2021/12/30 07:21:15;;;;;;;0.10;0.10;;;;;;;;;;5056754;28;20052;-92
2021/12/30 07:23:41;;;;;;;0.10;0.10;;;;;;;;;;5040417;28;20047;-95
2021/12/30 07:26:07;;;;;;;0.10;0.10;;;;;;;;;;5040536;28;20460;-93
2021/12/30 07:28:33;;;;;;;0.10;0.10;;;;;;;;;;5040208;28;20056;-92
2021/12/30 07:30:59;;;;;;;0.20;0.20;;;;;;;;;;5039885;28;20044;-93
2021/12/30 07:33:25;;;;;;;0.63;0.63;;;;;;;;;;5040463;28;20048;-93
2021/12/30 07:35:51;;;;;;;0.10;0.10;;;;;;;;;;5039917;28;20452;-91
2021/12/30 07:38:17;;;;;;;0.10;0.10;;;;;;;;;;5039772;28;20048;-91
2021/12/30 07:40:43;;;;;;;0.10;0.10;;;;;;;;;;5040439;28;20048;-92
2021/12/30 07:43:09;;;;;;;0.10;0.10;;;;;;;;;;5055746;28;20471;-91
2021/12/30 07:45:35;;;;;;;0.10;0.10;;;;;;;;;;5039855;28;20067;-93
2021/12/30 07:48:01;;;;;;;0.10;0.10;;;;;;;;;;5039318;28;20087;-86
2021/12/30 07:50:27;;;;;;;0.10;0.10;;;;;;;;;;5072250;28;20041;-90
2021/12/30 07:52:53;;;;;;;0.10;0.10;;;;;;;;;;5055670;28;20480;-89
2021/12/30 07:55:19;;;;;;;0.35;0.35;;;;;;;;;;5055801;28;20040;-91
2021/12/30 07:57:45;;;;;;;0.10;0.10;;;;;;;;;;5038869;28;20511;-89
2021/12/30 08:00:12;;;;;;;0.10;0.10;;;;;;;;;;5056789;28;20483;-90
2021/12/30 08:02:41;;;;;;;0.10;0.10;;;;;;;;;;5056150;28;20483;-89
2021/12/30 08:05:08;;;;;;;0.30;0.30;;;;;;;;;;5039687;28;20388;-89
2021/12/30 08:07:34;;;;;;;0.10;0.10;;;;;;;;;;5055519;28;20093;-89
2021/12/30 08:10:00;;;;;;;0.10;0.10;;;;;;;;;;5039512;28;20044;-88
2021/12/30 08:12:26;;;;;;;0.10;0.10;;;;;;;;;;5057619;28;20046;-89
2021/12/30 08:14:52;;;;;;;0.10;0.10;;;;;;;;;;5059069;28;20052;-90
2021/12/30 08:17:18;;;;;;;0.10;0.10;;;;;;;;;;5077528;28;20032;-90
2021/12/30 08:19:44;;;;;;;0.10;0.10;;;;;;;;;;5074436;28;20480;-89
2021/12/30 08:22:10;;;;;;;0.10;0.10;;;;;;;;;;5038529;28;20124;-90
2021/12/30 08:24:36;;;;;;;0.20;0.20;;;;;;;;;;5054923;28;20071;-90
2021/12/30 08:27:02;;;;;;;0.10;0.10;;;;;;;;;;5071315;28;20048;-89
2021/12/30 08:29:31;;;;;;;0.10;0.10;;;;;;;;;;5054763;28;20044;-89
2021/12/30 08:31:57;;;;;;;0.10;0.10;;;;;;;;;;5038650;28;20036;-89
2021/12/30 08:34:23;;;;;;;0.10;0.10;;;;;;;;;;5054824;28;20205;-90
2021/12/30 08:36:49;;;;;;;0.10;0.10;;;;;;;;;;5038490;28;20041;-89
2021/12/30 08:39:15;;;;;;;0.10;0.10;;;;;;;;;;5038229;28;20396;-90
2021/12/30 08:41:41;;;;;;;0.10;0.10;;;;;;;;;;5038060;28;20044;-89
2021/12/30 08:44:07;;;;;;;0.10;0.10;;;;;;;;;;5037821;28;20048;-89
2021/12/30 08:46:33;;;;;;;0.10;0.10;;;;;;;;;;5054556;28;20047;-90
2021/12/30 08:48:59;;;;;;;0.10;0.10;;;;;;;;;;5037946;28;20040;-89
2021/12/30 08:51:25;;;;;;;0.10;0.10;;;;;;;;;;5038012;28;20044;-89
2021/12/30 08:53:51;;;;;;;0.10;0.10;;;;;;;;;;5054793;28;20045;-90
2021/12/30 08:56:17;;;;;;;0.10;0.10;;;;;;;;;;5038241;28;20044;-90
2021/12/30 08:58:43;;;;;;;0.10;0.10;;;;;;;;;;5054658;28;20047;-89
2021/12/30 09:01:09;;;;;;;0.10;0.10;;;;;;;;;;5054287;28;20419;-89
2021/12/30 09:03:35;;;;;;;0.10;0.10;;;;;;;;;;5037713;28;20051;-89
2021/12/30 09:06:01;;;;;;;0.10;0.10;;;;;;;;;;5054462;28;20434;-90
2021/12/30 09:08:27;;;;;;;0.35;0.20;;;;;;;;;;5054526;28;20036;-89
2021/12/30 09:10:53;;;;;;;0.10;0.10;;;;;;;;;;5037503;28;20059;-90
2021/12/30 09:13:20;;;;;;;0.10;0.10;;;;;;;;;;5037893;28;20492;-90
2021/12/30 09:15:46;;;;;;;0.10;0.10;;;;;;;;;;5038342;28;20123;-89
2021/12/30 09:18:12;;;;;;;0.10;0.10;;;;;;;;;;5054203;28;20047;-90
2021/12/30 09:20:40;;;;;;;0.10;0.10;;;;;;;;;;5054399;28;20048;-90
2021/12/30 09:23:06;;;;;;;0.10;0.10;;;;;;;;;;5037292;28;20066;-90
2021/12/30 09:25:32;;;;;;;0.10;0.10;;;;;;;;;;5037556;28;20257;-90
2021/12/30 09:27:58;;;;;;;0.10;0.10;;;;;;;;;;5037178;28;20110;-90
2021/12/30 09:30:27;;;;;;;0.10;0.10;;;;;;;;;;5037364;28;20063;-90
2021/12/30 09:32:53;;;;;;;0.10;0.10;;;;;;;;;;5037676;28;20444;-89
2021/12/30 09:35:19;;;;;;;0.10;0.10;;;;;;;;;;5037806;28;20037;-90
2021/12/30 09:37:45;;;;;;;0.10;0.10;;;;;;;;;;5053769;28;20468;-89
2021/12/30 09:40:14;;;;;;;0.10;0.10;;;;;;;;;;5037337;28;20044;-90
2021/12/30 09:42:43;;;;;;;0.20;0.20;;;;;;;;;;5053979;28;20150;-90
2021/12/30 09:45:10;;;;;;;0.10;0.10;;;;;;;;;;5037647;28;20130;-90
2021/12/30 09:47:36;;;;;;;0.10;0.10;;;;;;;;;;5037614;28;20059;-90
2021/12/30 09:50:02;;;;;;;0.10;0.10;;;;;;;;;;5054019;28;20047;-90
2021/12/30 09:52:28;;;;;;;0.10;0.10;;;;;;;;;;5054067;28;20440;-90
2021/12/30 09:54:54;;;;;;;0.10;0.10;;;;;;;;;;5054316;28;20064;-90
2021/12/30 09:57:20;;;;;;;0.10;0.10;;;;;;;;;;5037387;28;20037;-90
2021/12/30 09:59:46;;;;;;;0.10;0.10;;;;;;;;;;5037169;28;20463;-91
2021/12/30 10:02:12;;;;;;;0.10;0.10;;;;;;;;;;5037583;28;20036;-90
2021/12/30 10:04:38;;;;;;;0.10;0.10;;;;;;;;;;5053668;28;20044;-90
2021/12/30 10:07:04;;;;;;;0.10;0.10;;;;;;;;;;5037421;28;20372;-89
2021/12/30 10:09:49;;;;;;;0.10;0.10;;;;;;;;;;5053590;28;20101;-89
2021/12/30 10:12:15;;;;;;;0.10;0.10;;;;;;;;;;5055475;28;20098;-90
2021/12/30 10:14:42;;;;;;;0.10;0.10;;;;;;;;;;5053641;28;20036;-90
2021/12/30 10:17:18;;;;;;;0.10;0.10;;;;;;;;;;5070490;28;20049;-90
2021/12/30 10:19:44;;;;;;;0.10;0.10;;;;;;;;;;5053468;28;20041;-90
2021/12/30 10:22:13;;;;;;;0.10;0.10;;;;;;;;;;5053758;28;20080;-90
2021/12/30 10:24:40;;;;;;;0.10;0.10;;;;;;;;;;5037399;28;20399;-90
2021/12/30 10:27:06;;;;;;;0.20;0.20;;;;;;;;;;5036830;28;20448;-90
2021/12/30 10:29:44;;;;;;;0.10;0.10;;;;;;;;;;5037026;28;20064;-89
2021/12/30 10:32:22;;;;;;;0.10;0.10;;;;;;;;;;5053672;28;20077;-90
2021/12/30 10:35:07;;;;;;;0.10;0.10;;;;;;;;;;5036947;28;20032;-90
2021/12/30 10:37:33;;;;;;;0.10;0.10;;;;;;;;;;5057074;28;20051;-91
2021/12/30 10:39:59;;;;;;;0.20;0.20;;;;;;;;;;5057208;28;20423;-90
2021/12/30 10:42:30;;;;;;;0.10;0.10;;;;;;;;;;5057172;28;20036;-91
2021/12/30 10:45:06;;;;;;;0.10;0.10;;;;;;;;;;5057658;28;20080;-90
2021/12/30 10:47:49;;;;;;;0.10;0.10;;;;;;;;;;5040305;28;20040;-89
2021/12/30 10:50:15;;;;;;;0.10;0.10;;;;;;;;;;5040290;28;20141;-90
2021/12/30 10:52:45;;;;;;;0.10;0.10;;;;;;;;;;5040267;28;20095;-90
2021/12/30 10:55:12;;;;;;;0.20;0.20;;;;;;;;;;5056869;28;20472;-90
2021/12/30 10:57:38;;;;;;;0.10;0.10;;;;;;;;;;5056727;28;20090;-90
2021/12/30 11:00:06;;;;;;;0.10;0.10;;;;;;;;;;5040093;28;20041;-90
2021/12/30 11:02:33;;;;;;;0.10;0.10;;;;;;;;;;5040291;28;20189;-91
2021/12/30 11:05:05;;;;;;;0.10;0.10;;;;;;;;;;5039817;28;20563;-90
2021/12/30 11:07:42;;;;;;;0.10;0.10;;;;;;;;;;5040478;28;20128;-90
2021/12/30 11:10:08;;;;;;;0.10;0.10;;;;;;;;;;5056857;28;20044;-90
2021/12/30 11:12:38;;;;;;;0.10;0.10;;;;;;;;;;5056735;28;20127;-92
2021/12/30 11:15:06;;;;;;;0.10;0.10;;;;;;;;;;5056578;28;20036;-90
2021/12/30 11:17:36;;;;;;;0.10;0.10;;;;;;;;;;5040090;28;20048;-90
2021/12/30 11:20:04;;;;;;;0.10;0.10;;;;;;;;;;5040349;28;20045;-90
2021/12/30 11:22:31;;;;;;;0.15;0.15;;;;;;;;;;5056206;28;20388;-89
2021/12/30 11:24:58;;;;;;;0.10;0.10;;;;;;;;;;5039637;28;20101;-91
2021/12/30 11:27:24;;;;;;;0.20;0.20;;;;;;;;;;5039594;28;20143;-90
2021/12/30 11:29:52;;;;;;;0.10;0.10;;;;;;;;;;5039440;28;20048;-90
2021/12/30 11:32:19;;;;;;;0.10;0.10;;;;;;;;;;5039515;28;20452;-90
2021/12/30 11:34:48;;;;;;;0.30;0.30;;;;;;;;;;5056061;28;20041;-89
2021/12/30 11:37:14;;;;;;;0.10;0.10;;;;;;;;;;5039502;28;20123;-90
2021/12/30 11:39:42;;;;;;;0.10;0.10;;;;;;;;;;5056063;28;20101;-89
2021/12/30 11:42:10;;;;;;;0.10;0.10;;;;;;;;;;5055977;28;20044;-89
2021/12/30 11:44:40;;;;;;;0.10;0.10;;;;;;;;;;5039392;28;20047;-90
2021/12/30 11:47:09;;;;;;;0.10;0.10;;;;;;;;;;5039171;28;20079;-90
2021/12/30 11:49:55;;;;;;;0.10;0.10;;;;;;;;;;5039085;28;20041;-91
2021/12/30 11:52:39;;;;;;;0.10;0.10;;;;;;;;;;5039004;28;20040;-89
2021/12/30 11:55:25;;;;;;;0.10;0.10;;;;;;;;;;5055326;28;20079;-90
2021/12/30 11:57:51;;;;;;;1.13;1.13;;;;;;;;;;5055203;28;20131;-90
2021/12/30 12:00:35;;;;;;;0.10;0.10;;;;;;;;;;5038741;28;20123;-90
2021/12/30 12:03:02;;;;;;;0.10;0.10;;;;;;;;;;5039002;28;20115;-89
2021/12/30 12:05:41;;;;;;;0.10;0.10;;;;;;;;;;5055416;28;20119;-90
2021/12/30 12:08:08;;;;;;;0.10;0.10;;;;;;;;;;5038843;28;20037;-91
2021/12/30 12:10:34;;;;;;;0.10;0.10;;;;;;;;;;5055348;28;20398;-89
2021/12/30 12:13:20;;;;;;;0.10;0.10;;;;;;;;;;5055130;28;20058;-89
2021/12/30 12:15:46;;;;;;;0.10;0.10;;;;;;;;;;5071398;28;20039;-90
2021/12/30 12:18:12;;;;;;;0.55;0.55;;;;;;;;;;5071545;28;20427;-89
2021/12/30 12:20:38;;;;;;;0.10;0.10;;;;;;;;;;5038750;28;20047;-90
2021/12/30 12:23:22;;;;;;;0.10;0.10;;;;;;;;;;5038260;28;20344;-89
2021/12/30 12:25:57;;;;;;;0.10;0.10;;;;;;;;;;5054787;28;20085;-90
2021/12/30 12:28:23;;;;;;;0.25;0.25;;;;;;;;;;5054574;28;20110;-89
2021/12/30 12:30:51;;;;;;;0.10;0.10;;;;;;;;;;5054959;28;20442;-90
2021/12/30 12:33:24;;;;;;;0.10;0.10;;;;;;;;;;5038559;28;20396;-89
2021/12/30 12:35:50;;;;;;;0.10;0.10;;;;;;;;;;5038644;28;20046;-90
2021/12/30 12:38:16;;;;;;;0.17;0.17;;;;;;;;;;5038376;28;20403;-90
2021/12/30 12:40:43;;;;;;;0.10;0.10;;;;;;;;;;5038763;28;20063;-90
2021/12/30 12:43:13;;;;;;;0.10;0.10;;;;;;;;;;5054929;28;20044;-90
2021/12/30 12:45:44;;;;;;;0.10;0.10;;;;;;;;;;5055533;28;20037;-89
2021/12/30 12:48:16;;;;;;;0.13;0.13;;;;;;;;;;5055436;28;20044;-90
2021/12/30 12:50:43;;;;;;;0.10;0.10;;;;;;;;;;5055044;28;20055;-89
2021/12/30 12:53:24;;;;;;;0.10;0.10;;;;;;;;;;5055214;28;20055;-90
2021/12/30 12:55:51;;;;;;;0.10;0.10;;;;;;;;;;5071516;28;20197;-89
2021/12/30 12:58:18;;;;;;;0.10;0.10;;;;;;;;;;5054313;28;20041;-88
2021/12/30 13:00:44;;;;;;;0.10;0.10;;;;;;;;;;5038710;28;20047;-90
2021/12/30 13:03:10;;;;;;;0.10;0.10;;;;;;;;;;5041039;28;20040;-90
2021/12/30 13:05:35;;;;;;;0.10;0.10;;;;;;;;;;5042564;28;20078;-89
2021/12/30 13:08:01;;;;;;;0.10;0.10;;;;;;;;;;5067499;28;20037;-91
2021/12/30 13:10:27;;;;;;;0.10;0.10;;;;;;;;;;5078528;28;20104;-90
2021/12/30 13:12:59;;;;;;;0.10;0.10;;;;;;;;;;5049698;28;20036;-89
2021/12/30 13:15:25;;;;;;;0.10;0.10;;;;;;;;;;5037676;28;20039;-90
2021/12/30 13:17:51;;;;;;;0.10;0.10;;;;;;;;;;5054663;28;20175;-90
2021/12/30 13:20:17;;;;;;;0.10;0.10;;;;;;;;;;5037687;28;20050;-89
2021/12/30 13:22:43;;;;;;;0.13;0.13;;;;;;;;;;5054175;28;20513;-90
2021/12/30 13:25:09;;;;;;;0.30;0.30;;;;;;;;;;5037760;28;20484;-90
2021/12/30 13:27:38;;;;;;;0.10;0.10;;;;;;;;;;5037425;28;20059;-90
2021/12/30 13:30:14;;;;;;;0.10;0.10;;;;;;;;;;5054363;28;20044;-90
2021/12/30 13:32:41;;;;;;;0.17;0.17;;;;;;;;;;5054871;28;20033;-91
2021/12/30 13:35:07;;;;;;;0.10;0.10;;;;;;;;;;5037821;28;20136;-90
2021/12/30 13:37:35;;;;;;;0.10;0.10;;;;;;;;;;5054108;28;20076;-90
2021/12/30 13:40:01;;;;;;;0.10;0.10;;;;;;;;;;5054036;28;20115;-90
2021/12/30 13:42:34;;;;;;;0.15;0.15;;;;;;;;;;5037603;28;20436;-89
2021/12/30 13:45:03;;;;;;;0.10;0.10;;;;;;;;;;5038761;28;20115;-90
2021/12/30 13:47:35;;;;;;;0.10;0.10;;;;;;;;;;5053860;28;20059;-90
2021/12/30 13:50:01;;;;;;;0.10;0.10;;;;;;;;;;5070953;28;20040;-91
2021/12/30 13:52:28;;;;;;;0.10;0.10;;;;;;;;;;5037475;28;20040;-90
2021/12/30 13:55:07;;;;;;;0.10;0.10;;;;;;;;;;5037513;28;20041;-90
2021/12/30 13:57:33;;;;;;;0.10;0.10;;;;;;;;;;5053924;28;20044;-90
2021/12/30 13:59:59;;;;;;;0.10;0.10;;;;;;;;;;5070782;28;20330;-89
2021/12/30 14:02:25;;;;;;;0.10;0.10;;;;;;;;;;5053749;28;20044;-90
2021/12/30 14:04:51;;;;;;;0.40;0.40;;;;;;;;;;5053846;28;20047;-91
2021/12/30 14:07:18;;;;;;;0.10;0.10;;;;;;;;;;5054110;28;20041;-88
2021/12/30 14:09:54;;;;;;;0.20;0.20;;;;;;;;;;5053816;28;20040;-90
2021/12/30 14:12:20;;;;;;;0.13;0.13;;;;;;;;;;5057922;28;20388;-90
2021/12/30 14:14:46;;;;;;;0.15;0.15;;;;;;;;;;5041096;28;20037;-90
2021/12/30 14:17:12;;;;;;;0.20;0.20;;;;;;;;;;5040948;28;20121;-90
2021/12/30 14:19:39;;;;;;;0.10;0.10;;;;;;;;;;5041046;28;20123;-91
2021/12/30 14:22:06;;;;;;;0.57;0.57;;;;;;;;;;5057581;28;20094;-91
2021/12/30 14:24:33;;;;;;;0.10;0.10;;;;;;;;;;5057900;28;20471;-90
2021/12/30 14:27:18;;;;;;;0.10;0.10;;;;;;;;;;5040697;28;20514;-90
2021/12/30 14:29:44;;;;;;;0.10;0.10;;;;;;;;;;5057525;28;20057;-90
2021/12/30 14:32:12;;;;;;;0.10;0.10;;;;;;;;;;5057338;28;20045;-90
2021/12/30 14:34:49;;;;;;;0.10;0.10;;;;;;;;;;5041009;28;20044;-90
2021/12/30 14:37:23;;;;;;;0.10;0.10;;;;;;;;;;5041190;28;20094;-91
2021/12/30 14:39:53;;;;;;;0.10;0.10;;;;;;;;;;5057356;28;20142;-89
2021/12/30 14:42:20;;;;;;;0.10;0.10;;;;;;;;;;5040840;28;20489;-90
2021/12/30 14:44:51;;;;;;;0.10;0.10;;;;;;;;;;5040303;28;20483;-91